LFQX weather

Juvancourt Airport
Charleville-Mezieres, Champagne-Ardenne, France

Public forecast

Using degrees Celsius for public forecast. Weather courtesy of forecast.io.

METAR (pilot weather report)

Closest report is Saint-Dizier-Robinson (BA 113) Air Base, 31.4 nm (58.2 km) N. Retrieved 2019/07/22 17:30 UTC (2 minutes ago):

LFSI 221730Z AUTO 02005KT CAVOK 32/09 Q1021

TAF (pilot weather forecast)

Closest forecast is Saint-Dizier-Robinson (BA 113) Air Base, 31.4 nm (58.2 km) N. Retrieved 2019/07/22 15:21 UTC (2 hours ago):

TAF LFSI 221400Z 2215/2315 36005KT CAVOK